Time;durP1;ratioP1;P1;durP2;ratioP2;P2;SDS_P1;SDS_P2;PMS_P1;PMS_P2;Temp;Humidity;BMP_temperature;BMP_pressure;BME280_temperature;BME280_humidity;BME280_pressure;Samples;Min_cycle;Max_cycle;Signal;HPM_P1;HPM_P2
2022/05/07 00:01:49;;;;;;;1.27;0.90;;;17.10;58.10;;;;;;5093372;23;20039;-50
2022/05/07 00:03:51;;;;;;;1.80;0.90;;;17.10;58.00;;;;;;5096334;23;20551;-53
2022/05/07 00:05:53;;;;;;;2.92;1.08;;;17.10;58.00;;;;;;5097336;23;20451;-54
2022/05/07 00:07:55;;;;;;;2.88;1.00;;;17.10;57.90;;;;;;5088889;23;20024;-50
2022/05/07 00:09:57;;;;;;;1.65;0.80;;;17.00;57.90;;;;;;5091654;23;20032;-52
2022/05/07 00:12:00;;;;;;;0.75;0.50;;;17.10;58.00;;;;;;5094158;23;20394;-51
2022/05/07 00:14:02;;;;;;;1.40;0.90;;;17.10;58.10;;;;;;5093220;23;20035;-51
2022/05/07 00:18:24;;;;;;;0.57;0.57;;;17.00;58.00;;;;;;5092690;23;20347;-50
2022/05/07 00:20:26;;;;;;;2.60;1.02;;;17.00;58.10;;;;;;5064000;23;20033;-51
2022/05/07 00:22:28;;;;;;;0.75;0.50;;;17.00;58.20;;;;;;5096921;23;20029;-50
2022/05/07 00:24:31;;;;;;;1.27;0.82;;;17.00;58.10;;;;;;5095847;23;20537;-48
2022/05/07 00:26:33;;;;;;;22.97;1.50;;;17.00;58.30;;;;;;5067821;23;20037;-48
2022/05/07 00:28:36;;;;;;;0.98;0.70;;;17.00;58.40;;;;;;5099665;23;20273;-51
2022/05/07 00:30:38;;;;;;;1.85;0.90;;;17.00;58.40;;;;;;5119358;23;20077;-53
2022/05/07 00:32:40;;;;;;;1.88;0.90;;;17.00;58.30;;;;;;5083617;23;20048;-46
2022/05/07 00:34:42;;;;;;;2.33;0.90;;;17.00;58.40;;;;;;5082594;23;20405;-52
2022/05/07 00:36:44;;;;;;;1.33;0.80;;;17.00;58.50;;;;;;5091250;23;20088;-54
2022/05/07 00:38:46;;;;;;;5.28;0.88;;;17.00;58.50;;;;;;5078963;23;20025;-53
2022/05/07 00:40:49;;;;;;;1.88;0.80;;;17.00;58.60;;;;;;5069227;23;20157;-53
2022/05/07 00:42:51;;;;;;;6.40;1.13;;;17.00;58.60;;;;;;5075187;23;20061;-50
2022/05/07 00:44:53;;;;;;;1.48;0.68;;;17.00;58.70;;;;;;5071919;23;20025;-53
2022/05/07 00:47:05;;;;;;;2.38;0.77;;;17.00;58.60;;;;;;5070426;23;20136;-52
2022/05/07 00:49:07;;;;;;;4.05;0.68;;;17.00;58.60;;;;;;5071335;23;20579;-55
2022/05/07 00:53:31;;;;;;;1.35;0.80;;;17.00;58.50;;;;;;5070717;23;20124;-51
2022/05/07 00:55:35;;;;;;;3.47;0.90;;;17.00;58.50;;;;;;5074060;23;20045;-51
2022/05/07 00:57:37;;;;;;;1.45;0.68;;;17.00;58.50;;;;;;5075153;23;20564;-52
2022/05/07 00:59:39;;;;;;;0.50;0.50;;;17.00;58.50;;;;;;5070539;23;20116;-52
2022/05/07 01:01:41;;;;;;;0.50;0.47;;;17.00;58.40;;;;;;5069416;23;20302;-49
2022/05/07 01:03:45;;;;;;;1.13;0.60;;;17.00;58.40;;;;;;5076665;23;20095;-52
2022/05/07 01:05:48;;;;;;;1.70;0.50;;;17.00;58.40;;;;;;5071247;23;20846;-51
2022/05/07 01:07:51;;;;;;;4.23;0.50;;;17.00;58.40;;;;;;5068592;23;20491;-51
2022/05/07 01:09:54;;;;;;;1.15;0.70;;;17.00;58.40;;;;;;5073574;23;20768;-48
2022/05/07 01:11:56;;;;;;;1.25;0.63;;;17.00;58.40;;;;;;5075557;23;20127;-53
2022/05/07 01:13:58;;;;;;;3.60;0.70;;;17.00;58.50;;;;;;5070470;23;20087;-49
2022/05/07 01:16:02;;;;;;;1.50;0.70;;;17.00;58.60;;;;;;5071696;23;20511;-53
2022/05/07 01:18:04;;;;;;;2.45;0.40;;;17.00;58.60;;;;;;5076472;23;20037;-51
2022/05/07 01:20:09;;;;;;;0.50;0.50;;;17.00;58.60;;;;;;5070763;23;20522;-52
2022/05/07 01:22:12;;;;;;;2.40;0.65;;;17.00;58.60;;;;;;5069424;23;20115;-50
2022/05/07 01:24:14;;;;;;;5.63;1.20;;;17.00;58.70;;;;;;5071583;23;20374;-50
2022/05/07 01:26:20;;;;;;;0.50;0.50;;;17.00;58.70;;;;;;5075689;23;20037;-53
2022/05/07 01:28:22;;;;;;;2.05;0.80;;;16.90;58.70;;;;;;5071210;23;20464;-50
2022/05/07 01:30:24;;;;;;;1.65;0.60;;;17.00;58.80;;;;;;5070188;23;20104;-46
2022/05/07 01:32:26;;;;;;;1.65;0.88;;;17.00;58.90;;;;;;5074254;23;20025;-47
2022/05/07 01:34:28;;;;;;;2.58;0.60;;;17.00;59.20;;;;;;5098949;23;20741;-54
2022/05/07 01:36:31;;;;;;;1.05;0.60;;;17.00;59.10;;;;;;5095224;23;20028;-51
2022/05/07 01:38:34;;;;;;;1.38;0.95;;;17.00;59.00;;;;;;5095752;23;20155;-48
2022/05/07 01:40:36;;;;;;;2.00;0.73;;;17.00;58.90;;;;;;5071665;23;20028;-49
2022/05/07 01:42:39;;;;;;;0.90;0.40;;;16.90;58.90;;;;;;5093343;23;20405;-50
2022/05/07 01:44:41;;;;;;;1.08;0.98;;;16.90;58.90;;;;;;5069193;23;20035;-49
2022/05/07 01:49:03;;;;;;;2.47;0.57;;;17.00;58.90;;;;;;5093900;23;20060;-48
2022/05/07 01:51:05;;;;;;;1.95;0.60;;;16.90;58.80;;;;;;5099853;23;20104;-47
2022/05/07 01:53:14;;;;;;;0.57;0.40;;;16.90;58.80;;;;;;5094709;23;20519;-46
2022/05/07 01:55:16;;;;;;;1.70;0.43;;;16.90;58.80;;;;;;5065547;23;20028;-48
2022/05/07 01:57:18;;;;;;;1.80;0.50;;;16.90;58.70;;;;;;5095766;23;20051;-53
2022/05/07 01:59:20;;;;;;;2.20;0.60;;;17.00;58.80;;;;;;5100074;23;20321;-49
2022/05/07 02:01:22;;;;;;;0.95;0.40;;;17.00;58.80;;;;;;5092684;23;20560;-51
2022/05/07 02:03:25;;;;;;;0.40;0.40;;;17.00;58.70;;;;;;5094353;23;20066;-48
2022/05/07 02:05:28;;;;;;;3.83;0.88;;;16.90;58.60;;;;;;5099452;23;20040;-53
2022/05/07 02:07:30;;;;;;;;;;;17.00;59.00;;;;;;5097955;23;20454;-51
2022/05/07 02:09:32;;;;;;;1.30;0.80;;;17.00;59.00;;;;;;5094647;23;20256;-53
2022/05/07 02:11:34;;;;;;;4.72;0.70;;;17.00;58.50;;;;;;5095000;23;20568;-49
2022/05/07 02:13:36;;;;;;;0.50;0.50;;;17.00;57.90;;;;;;5096275;23;20429;-54
2022/05/07 02:15:38;;;;;;;1.27;0.40;;;17.00;57.60;;;;;;5093939;23;20064;-53
2022/05/07 02:17:40;;;;;;;3.40;0.88;;;17.00;57.30;;;;;;5094611;23;20083;-58
2022/05/07 02:19:42;;;;;;;4.40;1.02;;;17.00;58.10;;;;;;5073046;23;20024;-51
2022/05/07 02:21:45;;;;;;;2.97;0.98;;;17.00;59.20;;;;;;5094243;23;20028;-49
2022/05/07 02:23:47;;;;;;;6.75;1.20;;;17.00;59.20;;;;;;5094633;23;20036;-55
2022/05/07 02:25:49;;;;;;;4.03;1.08;;;17.00;58.90;;;;;;5099324;23;20032;-54
2022/05/07 02:27:52;;;;;;;3.58;1.13;;;17.00;58.70;;;;;;5096931;23;20722;-55
2022/05/07 02:29:55;;;;;;;2.17;0.80;;;17.00;58.50;;;;;;5066613;23;20123;-50
2022/05/07 02:32:06;;;;;;;3.05;0.70;;;17.00;58.40;;;;;;5096246;23;20123;-55
2022/05/07 02:34:08;;;;;;;2.22;0.60;;;17.00;58.20;;;;;;5094804;23;20281;-48
2022/05/07 02:36:10;;;;;;;1.88;0.60;;;17.00;58.00;;;;;;5100689;23;20028;-52
2022/05/07 02:38:12;;;;;;;0.98;0.63;;;17.00;57.90;;;;;;5095534;23;20211;-53
2022/05/07 02:40:14;;;;;;;15.70;0.90;;;17.00;57.80;;;;;;5095975;23;20024;-48
2022/05/07 02:44:37;;;;;;;2.42;0.52;;;17.00;57.70;;;;;;5094794;23;20700;-53
2022/05/07 02:46:39;;;;;;;3.27;0.70;;;17.00;57.70;;;;;;5100932;23;20324;-53
2022/05/07 02:48:44;;;;;;;0.85;0.57;;;17.00;57.60;;;;;;5094517;23;20035;-49
2022/05/07 02:50:46;;;;;;;2.20;0.52;;;17.00;57.60;;;;;;5094236;23;20104;-54
2022/05/07 02:52:49;;;;;;;0.75;0.30;;;17.00;57.50;;;;;;5096533;23;20099;-52
2022/05/07 02:54:51;;;;;;;2.25;0.50;;;17.00;57.60;;;;;;5098006;23;20483;-51
2022/05/07 02:56:54;;;;;;;0.70;0.50;;;17.00;57.40;;;;;;5069086;23;20029;-53
2022/05/07 02:58:57;;;;;;;1.33;0.50;;;17.00;57.40;;;;;;5067964;23;20044;-52
2022/05/07 03:00:59;;;;;;;0.50;0.32;;;17.00;57.30;;;;;;5099285;23;20386;-55
2022/05/07 03:03:01;;;;;;;1.27;0.50;;;17.10;57.30;;;;;;5043117;23;20904;-54
2022/05/07 03:05:04;;;;;;;0.85;0.43;;;17.10;57.20;;;;;;5093117;23;20032;-55
2022/05/07 03:07:06;;;;;;;0.30;0.30;;;17.10;57.10;;;;;;5074089;23;20028;-53
2022/05/07 03:09:08;;;;;;;1.13;0.68;;;17.10;57.10;;;;;;5098039;23;20560;-55
2022/05/07 03:11:11;;;;;;;0.43;0.40;;;17.10;57.00;;;;;;5093658;23;20033;-53
2022/05/07 03:13:13;;;;;;;0.40;0.40;;;17.10;57.00;;;;;;5069938;23;20037;-55
2022/05/07 03:15:15;;;;;;;0.30;0.30;;;17.10;57.00;;;;;;5075601;23;20025;-55
2022/05/07 03:17:17;;;;;;;0.73;0.40;;;17.10;56.90;;;;;;5096353;23;20043;-53
2022/05/07 03:19:20;;;;;;;0.95;0.65;;;17.10;56.80;;;;;;5097444;23;20127;-56
2022/05/07 03:21:22;;;;;;;0.90;0.40;;;17.20;56.70;;;;;;5101292;23;20514;-50
2022/05/07 03:23:25;;;;;;;0.50;0.30;;;17.20;56.60;;;;;;5045115;23;20478;-55
2022/05/07 03:25:27;;;;;;;0.52;0.47;;;17.20;57.00;;;;;;5095147;23;20115;-55
2022/05/07 03:27:29;;;;;;;0.50;0.50;;;17.20;56.40;;;;;;5098789;23;20465;-51
2022/05/07 03:29:31;;;;;;;0.32;0.28;;;17.30;56.30;;;;;;5101245;23;20034;-50
2022/05/07 03:31:34;;;;;;;3.10;0.40;;;17.30;56.20;;;;;;5095679;23;20207;-56
2022/05/07 03:33:36;;;;;;;0.30;0.30;;;17.30;56.10;;;;;;5095442;23;20537;-55
2022/05/07 03:35:39;;;;;;;0.30;0.30;;;17.30;56.10;;;;;;5100592;23;20052;-51
2022/05/07 03:37:41;;;;;;;0.52;0.50;;;17.40;56.60;;;;;;5096597;23;20036;-51
2022/05/07 03:39:43;;;;;;;0.40;0.40;;;17.40;55.90;;;;;;5069240;23;20039;-50
2022/05/07 03:41:45;;;;;;;0.30;0.30;;;17.40;55.80;;;;;;5100773;23;20037;-50
2022/05/07 03:43:47;;;;;;;0.25;0.25;;;17.50;55.80;;;;;;5096387;23;20334;-54
2022/05/07 03:45:50;;;;;;;0.30;0.30;;;17.50;56.40;;;;;;5094667;23;20393;-56
2022/05/07 03:47:52;;;;;;;0.22;0.22;;;17.50;55.70;;;;;;5099697;23;20508;-50
2022/05/07 03:49:54;;;;;;;0.30;0.30;;;17.60;55.60;;;;;;5102320;23;20029;-50
2022/05/07 03:54:16;;;;;;;0.40;0.40;;;17.60;55.50;;;;;;5100693;23;20029;-51
2022/05/07 03:56:18;;;;;;;0.30;0.30;;;17.60;55.40;;;;;;5093653;23;20060;-51
2022/05/07 03:58:20;;;;;;;0.43;0.43;;;17.60;55.30;;;;;;5097779;23;20338;-54
2022/05/07 04:00:23;;;;;;;0.50;0.30;;;17.70;55.40;;;;;;5101746;23;20028;-54
2022/05/07 04:02:25;;;;;;;0.55;0.47;;;17.70;55.20;;;;;;5095940;23;20457;-53
2022/05/07 04:04:27;;;;;;;0.38;0.38;;;17.80;55.40;;;;;;5092131;23;20112;-57
2022/05/07 04:06:29;;;;;;;0.30;0.30;;;17.80;55.10;;;;;;5100568;23;20035;-53
2022/05/07 04:08:31;;;;;;;0.30;0.30;;;17.90;55.00;;;;;;5068240;23;20029;-53
2022/05/07 04:10:33;;;;;;;0.50;0.50;;;17.90;55.00;;;;;;5092263;23;20090;-54
2022/05/07 04:12:35;;;;;;;0.45;0.45;;;18.00;54.90;;;;;;5097326;23;20064;-56
2022/05/07 04:14:37;;;;;;;0.38;0.38;;;18.00;54.80;;;;;;5097925;23;20385;-56
2022/05/07 04:16:39;;;;;;;1.15;0.60;;;18.10;54.80;;;;;;5092820;23;20123;-56
2022/05/07 04:18:41;;;;;;;0.43;0.40;;;18.10;54.70;;;;;;5096191;23;20046;-54
2022/05/07 04:20:43;;;;;;;0.47;0.47;;;18.20;54.60;;;;;;5099443;23;20032;-49
2022/05/07 04:22:45;;;;;;;0.40;0.30;;;18.30;55.10;;;;;;5093219;23;20103;-51
2022/05/07 04:24:48;;;;;;;0.50;0.45;;;18.30;54.40;;;;;;5093502;23;20024;-53
2022/05/07 04:26:50;;;;;;;0.30;0.30;;;18.40;54.40;;;;;;5100509;23;20360;-54
2022/05/07 04:28:52;;;;;;;0.32;0.32;;;18.40;54.40;;;;;;5089951;23;20846;-52
2022/05/07 04:30:54;;;;;;;0.55;0.32;;;18.40;54.50;;;;;;5092979;23;20082;-53
2022/05/07 04:32:56;;;;;;;0.75;0.40;;;18.40;54.50;;;;;;5073804;23;20029;-52
2022/05/07 04:34:58;;;;;;;0.40;0.40;;;18.40;54.50;;;;;;5095510;23;20028;-55
2022/05/07 04:37:00;;;;;;;0.30;0.30;;;18.50;54.60;;;;;;5092212;23;20064;-54
2022/05/07 04:39:03;;;;;;;0.28;0.28;;;18.50;54.60;;;;;;5095685;23;20051;-53
2022/05/07 04:41:05;;;;;;;0.30;0.30;;;18.60;54.60;;;;;;5097745;23;20369;-52
2022/05/07 04:43:07;;;;;;;0.50;0.50;;;18.60;54.40;;;;;;5094727;23;20029;-52
2022/05/07 04:45:10;;;;;;;0.20;0.20;;;18.70;54.30;;;;;;5094606;23;20055;-51
2022/05/07 04:47:12;;;;;;;0.30;0.30;;;18.80;54.30;;;;;;5100286;23;20033;-56
2022/05/07 04:49:18;;;;;;;0.40;0.40;;;18.90;54.10;;;;;;5108813;23;20074;-51
2022/05/07 04:51:20;;;;;;;0.57;0.30;;;18.90;54.10;;;;;;5111515;23;20075;-51
2022/05/07 04:53:22;;;;;;;0.45;0.40;;;19.00;54.00;;;;;;5110622;23;20032;-51
2022/05/07 04:55:24;;;;;;;0.30;0.30;;;19.00;53.80;;;;;;5116454;23;20449;-54
2022/05/07 04:57:26;;;;;;;1.45;0.60;;;19.10;54.00;;;;;;5105597;23;20028;-54
2022/05/07 04:59:28;;;;;;;0.45;0.30;;;19.10;53.80;;;;;;5067496;23;20025;-55
2022/05/07 05:01:30;;;;;;;0.55;0.45;;;19.10;54.30;;;;;;5100527;23;20206;-54
2022/05/07 05:03:32;;;;;;;0.55;0.38;;;19.10;53.60;;;;;;5067709;23;20175;-54
2022/05/07 05:05:36;;;;;;;0.35;0.35;;;19.20;53.60;;;;;;5092909;23;20148;-52
2022/05/07 05:07:38;;;;;;;0.32;0.30;;;19.20;53.60;;;;;;5099967;23;20029;-54
2022/05/07 05:09:40;;;;;;;1.10;0.30;;;19.20;53.90;;;;;;5097128;23;20036;-52
2022/05/07 05:11:42;;;;;;;0.35;0.35;;;19.20;53.50;;;;;;5090400;23;20028;-53
2022/05/07 05:13:45;;;;;;;1.33;0.32;;;19.20;53.50;;;;;;5090897;23;20036;-54
2022/05/07 05:15:47;;;;;;;0.73;0.43;;;19.20;53.40;;;;;;5098859;23;20433;-49
2022/05/07 05:17:49;;;;;;;0.40;0.40;;;19.30;53.50;;;;;;5093340;23;20329;-53
2022/05/07 05:19:51;;;;;;;0.45;0.45;;;19.30;53.50;;;;;;5095703;23;20091;-54
2022/05/07 05:21:53;;;;;;;0.30;0.30;;;19.20;53.50;;;;;;5098503;23;20576;-53
2022/05/07 05:23:55;;;;;;;1.08;0.43;;;19.20;53.50;;;;;;5089097;23;20466;-48
2022/05/07 05:25:58;;;;;;;0.30;0.30;;;19.20;53.50;;;;;;5065683;23;20032;-52
2022/05/07 05:28:00;;;;;;;1.20;0.40;;;19.20;53.40;;;;;;5095687;23;20672;-56
2022/05/07 05:30:02;;;;;;;0.25;0.25;;;19.20;53.50;;;;;;5094842;23;20420;-53
2022/05/07 05:32:05;;;;;;;0.35;0.35;;;19.20;53.40;;;;;;5090697;23;20486;-55
2022/05/07 05:34:08;;;;;;;0.30;0.30;;;19.20;53.50;;;;;;5091477;23;20350;-53
2022/05/07 05:36:10;;;;;;;0.30;0.30;;;19.20;53.60;;;;;;5096237;23;20025;-52
2022/05/07 05:38:12;;;;;;;0.40;0.40;;;19.20;53.70;;;;;;5094328;23;20266;-53
2022/05/07 05:40:14;;;;;;;1.30;0.40;;;19.10;53.60;;;;;;5093077;23;20033;-57
2022/05/07 05:42:16;;;;;;;0.30;0.30;;;19.10;53.40;;;;;;5100932;23;20429;-55
2022/05/07 05:44:18;;;;;;;0.20;0.20;;;19.10;53.50;;;;;;5096661;23;20075;-53
2022/05/07 05:46:21;;;;;;;0.30;0.30;;;19.10;53.60;;;;;;5094106;23;20068;-56
2022/05/07 05:48:26;;;;;;;0.63;0.32;;;19.10;53.50;;;;;;5098924;23;20024;-54
2022/05/07 05:50:30;;;;;;;0.57;0.50;;;19.10;53.40;;;;;;5073705;23;20036;-58
2022/05/07 05:52:32;;;;;;;0.73;0.40;;;19.10;53.40;;;;;;5093928;23;20028;-56
2022/05/07 05:54:35;;;;;;;1.38;0.40;;;19.10;53.40;;;;;;5066318;23;20114;-57
2022/05/07 05:56:37;;;;;;;0.40;0.40;;;19.10;53.50;;;;;;5073641;23;20417;-55
2022/05/07 05:58:39;;;;;;;0.50;0.40;;;19.10;53.50;;;;;;5069436;23;20164;-57
2022/05/07 06:00:41;;;;;;;0.50;0.50;;;19.10;53.50;;;;;;5089095;23;20551;-57
2022/05/07 06:02:44;;;;;;;1.13;0.40;;;19.10;53.60;;;;;;5094894;23;20521;-53
2022/05/07 06:04:46;;;;;;;0.50;0.50;;;19.10;53.60;;;;;;5099996;23;20036;-55
2022/05/07 06:06:48;;;;;;;1.23;0.30;;;19.10;53.70;;;;;;5089912;23;20142;-56
2022/05/07 06:08:50;;;;;;;0.35;0.30;;;19.00;53.60;;;;;;5090990;23;20075;-55
2022/05/07 06:10:54;;;;;;;0.30;0.30;;;19.10;53.60;;;;;;5099403;23;20028;-57
2022/05/07 06:12:57;;;;;;;0.55;0.50;;;19.10;53.70;;;;;;5094651;23;20031;-57
2022/05/07 06:14:59;;;;;;;1.17;0.40;;;19.10;53.70;;;;;;5092552;23;20393;-54
2022/05/07 06:17:01;;;;;;;0.30;0.30;;;19.10;53.70;;;;;;5094385;23;20028;-57
2022/05/07 06:19:03;;;;;;;0.90;0.40;;;19.10;54.00;;;;;;5097601;23;20744;-53
2022/05/07 06:21:05;;;;;;;0.38;0.38;;;19.10;54.50;;;;;;5065633;23;20132;-57
2022/05/07 06:23:07;;;;;;;0.30;0.30;;;19.10;53.80;;;;;;5092520;23;20825;-54
2022/05/07 06:27:33;;;;;;;0.28;0.28;;;19.10;53.80;;;;;;5067880;23;20102;-58
2022/05/07 06:29:35;;;;;;;0.40;0.40;;;19.10;53.70;;;;;;5099346;23;20120;-57
2022/05/07 06:31:37;;;;;;;0.52;0.35;;;19.20;53.80;;;;;;5091474;23;20131;-57
2022/05/07 06:33:39;;;;;;;0.40;0.30;;;19.20;53.70;;;;;;5091442;23;20024;-57
2022/05/07 06:35:41;;;;;;;0.30;0.30;;;19.20;53.70;;;;;;5098629;23;20467;-58
2022/05/07 06:37:48;;;;;;;0.52;0.30;;;19.20;53.60;;;;;;5093330;23;20032;-56
2022/05/07 06:39:50;;;;;;;0.63;0.50;;;19.20;53.60;;;;;;5063276;23;20056;-53
2022/05/07 06:41:52;;;;;;;1.38;0.40;;;19.20;53.60;;;;;;5090999;23;20040;-57
2022/05/07 06:43:54;;;;;;;0.30;0.30;;;19.20;53.50;;;;;;5096681;23;20065;-58
2022/05/07 06:45:58;;;;;;;0.30;0.30;;;19.20;53.50;;;;;;5090853;23;20905;-58
2022/05/07 06:48:00;;;;;;;0.38;0.38;;;19.20;53.60;;;;;;5063291;23;20577;-57
2022/05/07 06:50:03;;;;;;;0.40;0.40;;;19.20;53.60;;;;;;5068525;23;20028;-57
2022/05/07 06:52:05;;;;;;;0.32;0.30;;;19.20;53.70;;;;;;5095841;23;20531;-55
2022/05/07 06:54:07;;;;;;;1.97;0.40;;;19.10;53.70;;;;;;5092621;23;20028;-56
2022/05/07 06:56:09;;;;;;;1.13;0.32;;;19.10;53.70;;;;;;5092069;23;20082;-57
2022/05/07 06:58:11;;;;;;;0.30;0.30;;;19.10;53.80;;;;;;5095623;23;20063;-53
2022/05/07 07:00:15;;;;;;;0.45;0.30;;;19.10;53.90;;;;;;5091787;23;20346;-57
2022/05/07 07:02:17;;;;;;;0.30;0.30;;;19.10;54.00;;;;;;5064298;23;20040;-55
2022/05/07 07:04:20;;;;;;;0.30;0.30;;;19.00;53.90;;;;;;5094922;23;20024;-57
2022/05/07 07:06:22;;;;;;;0.50;0.20;;;19.00;53.90;;;;;;5089625;23;20402;-58
2022/05/07 07:08:24;;;;;;;0.32;0.30;;;19.00;54.60;;;;;;5084169;23;20079;-57
2022/05/07 07:10:26;;;;;;;1.30;0.40;;;19.00;54.10;;;;;;5066216;23;20108;-57
2022/05/07 07:12:29;;;;;;;0.50;0.40;;;18.90;54.00;;;;;;5096641;23;20763;-57
2022/05/07 07:14:32;;;;;;;0.30;0.30;;;18.90;54.10;;;;;;5090894;23;20033;-58
2022/05/07 07:16:34;;;;;;;;;;;18.90;54.20;;;;;;5092401;23;20265;-57
2022/05/07 07:18:36;;;;;;;0.60;0.32;;;18.90;54.20;;;;;;5090778;23;20011;-54
2022/05/07 07:20:43;;;;;;;0.40;0.40;;;18.90;54.30;;;;;;5089051;23;20717;-56
2022/05/07 07:22:46;;;;;;;0.47;0.30;;;18.90;54.30;;;;;;5087291;23;20040;-58
2022/05/07 07:24:48;;;;;;;0.30;0.30;;;18.90;54.30;;;;;;5087250;23;20417;-57
2022/05/07 07:26:50;;;;;;;0.45;0.38;;;18.80;54.30;;;;;;5091018;23;20032;-58
2022/05/07 07:28:53;;;;;;;0.40;0.40;;;18.80;54.30;;;;;;5086029;23;20769;-58
2022/05/07 07:30:55;;;;;;;0.30;0.30;;;18.80;54.30;;;;;;5086993;23;20051;-57
2022/05/07 07:32:57;;;;;;;0.32;0.32;;;18.80;54.30;;;;;;5065352;23;20029;-58
2022/05/07 07:35:05;;;;;;;0.65;0.30;;;18.80;54.30;;;;;;5092315;23;20029;-58
2022/05/07 07:37:07;;;;;;;1.10;0.40;;;18.70;54.40;;;;;;5086148;23;20520;-56
2022/05/07 07:39:09;;;;;;;0.40;0.30;;;18.70;54.40;;;;;;5086232;23;20028;-58
2022/05/07 07:41:11;;;;;;;0.30;0.30;;;18.70;54.50;;;;;;5090864;23;20318;-58
2022/05/07 07:43:13;;;;;;;0.38;0.38;;;18.70;54.50;;;;;;5086481;23;20406;-57
2022/05/07 07:49:56;;;;;;;0.45;0.40;;;18.70;54.60;;;;;;5099164;23;20388;-58
2022/05/07 07:51:58;;;;;;;0.82;0.55;;;18.70;54.70;;;;;;5093783;23;20036;-56
2022/05/07 07:54:00;;;;;;;1.02;0.60;;;18.70;54.70;;;;;;5094098;23;20029;-59
2022/05/07 07:56:03;;;;;;;1.02;0.65;;;18.60;54.70;;;;;;5100485;23;20103;-61
2022/05/07 07:58:08;;;;;;;0.85;0.70;;;18.60;54.70;;;;;;5069576;23;20025;-56
2022/05/07 08:00:11;;;;;;;1.25;0.70;;;18.60;54.80;;;;;;5094914;23;20035;-59
2022/05/07 08:02:13;;;;;;;1.33;0.70;;;18.60;54.80;;;;;;5096949;23;20439;-59
2022/05/07 08:04:15;;;;;;;0.88;0.60;;;18.60;54.80;;;;;;5101054;23;20124;-58
2022/05/07 08:06:17;;;;;;;1.50;0.70;;;18.60;54.80;;;;;;5096188;23;20032;-57
2022/05/07 08:13:01;;;;;;;1.15;0.80;;;18.50;54.90;;;;;;5098548;23;20083;-59
2022/05/07 08:15:04;;;;;;;1.75;0.60;;;18.50;55.00;;;;;;5092324;23;20063;-57
2022/05/07 08:17:06;;;;;;;0.70;0.70;;;18.50;54.90;;;;;;5091546;23;20024;-58
2022/05/07 08:19:09;;;;;;;0.60;0.60;;;18.50;54.90;;;;;;5100129;23;20609;-58
2022/05/07 08:21:12;;;;;;;0.73;0.70;;;18.50;54.90;;;;;;5094160;23;20087;-58
2022/05/07 08:23:14;;;;;;;1.23;0.73;;;18.50;54.90;;;;;;5065865;23;20029;-58
2022/05/07 08:25:16;;;;;;;1.70;0.70;;;18.50;55.00;;;;;;5096805;23;20033;-57
2022/05/07 08:27:18;;;;;;;2.58;1.00;;;18.50;55.00;;;;;;5098105;23;20397;-54
2022/05/07 08:29:21;;;;;;;0.73;0.70;;;18.50;55.00;;;;;;5094139;23;20063;-58
2022/05/07 08:31:23;;;;;;;1.98;0.90;;;18.50;55.00;;;;;;5065242;23;20322;-56
2022/05/07 08:33:25;;;;;;;0.87;0.87;;;18.50;55.00;;;;;;5101113;23;20051;-56
2022/05/07 08:35:27;;;;;;;1.05;0.95;;;18.50;54.80;;;;;;5093242;23;20024;-58
2022/05/07 08:37:29;;;;;;;1.08;0.65;;;18.50;54.90;;;;;;5093947;23;20381;-58
2022/05/07 08:39:32;;;;;;;1.48;0.75;;;18.50;54.90;;;;;;5099180;23;20028;-58
2022/05/07 08:41:35;;;;;;;1.23;0.85;;;18.40;54.90;;;;;;5095193;23;20387;-57
2022/05/07 08:43:41;;;;;;;2.45;0.82;;;18.50;54.90;;;;;;5095031;23;20533;-57
2022/05/07 08:45:44;;;;;;;0.73;0.60;;;18.40;54.90;;;;;;5093292;23;20036;-57
2022/05/07 08:47:47;;;;;;;1.73;1.10;;;18.40;54.90;;;;;;5096971;23;20108;-57
2022/05/07 08:49:49;;;;;;;1.20;0.90;;;18.40;54.90;;;;;;5095929;23;20064;-58
2022/05/07 08:51:54;;;;;;;1.63;1.03;;;18.40;54.90;;;;;;5090960;23;20028;-58
2022/05/07 08:53:56;;;;;;;0.93;0.70;;;18.40;54.90;;;;;;5093993;23;20729;-58
2022/05/07 08:55:59;;;;;;;1.42;0.70;;;18.40;54.90;;;;;;5072414;23;20414;-58
2022/05/07 08:58:01;;;;;;;0.75;0.70;;;18.40;54.90;;;;;;5065146;23;20144;-56
2022/05/07 09:00:04;;;;;;;1.67;0.90;;;18.40;54.90;;;;;;5093677;23;20499;-59
2022/05/07 09:02:08;;;;;;;1.35;0.90;;;18.40;55.00;;;;;;5100372;23;20356;-59
2022/05/07 09:04:11;;;;;;;0.63;0.63;;;18.40;55.10;;;;;;5102636;23;20182;-58
2022/05/07 09:06:19;;;;;;;1.03;0.73;;;18.40;55.00;;;;;;5104627;23;20058;-58
2022/05/07 09:08:26;;;;;;;1.02;0.93;;;18.40;55.00;;;;;;5106000;23;20286;-58
2022/05/07 09:10:30;;;;;;;0.65;0.65;;;18.40;55.00;;;;;;5112955;23;20058;-59
2022/05/07 09:12:32;;;;;;;1.52;0.93;;;18.40;55.70;;;;;;5081751;23;20449;-55
2022/05/07 09:14:34;;;;;;;0.98;0.68;;;18.40;55.20;;;;;;5103662;23;20244;-58
2022/05/07 09:16:48;;;;;;;0.65;0.60;;;18.30;54.90;;;;;;5093239;23;20494;-58
2022/05/07 09:18:50;;;;;;;1.08;0.75;;;18.30;55.00;;;;;;5070079;23;20489;-53
2022/05/07 09:21:23;;;;;;;0.60;0.60;;;18.30;55.10;;;;;;5099731;23;20182;-57
2022/05/07 09:23:25;;;;;;;0.98;0.82;;;18.30;55.00;;;;;;5096054;23;20032;-56
2022/05/07 09:25:30;;;;;;;1.23;0.60;;;18.30;55.10;;;;;;5093793;23;20202;-57
2022/05/07 09:27:32;;;;;;;0.90;0.70;;;18.30;55.10;;;;;;5067664;23;20280;-55
2022/05/07 09:29:35;;;;;;;0.77;0.60;;;18.30;55.20;;;;;;5100053;23;20305;-58
2022/05/07 09:31:43;;;;;;;1.08;0.65;;;18.30;55.20;;;;;;5096685;23;20036;-57
2022/05/07 09:33:45;;;;;;;1.25;0.85;;;18.30;55.30;;;;;;5093555;23;20094;-58
2022/05/07 09:35:50;;;;;;;1.35;0.88;;;18.20;55.20;;;;;;5095396;23;20024;-57
2022/05/07 09:38:01;;;;;;;1.75;0.80;;;18.20;55.30;;;;;;5100831;23;20040;-58
2022/05/07 09:40:09;;;;;;;1.17;0.70;;;18.20;55.20;;;;;;5099907;23;20879;-56
2022/05/07 09:42:11;;;;;;;0.95;0.60;;;18.20;55.10;;;;;;5097629;23;20028;-58
2022/05/07 09:44:13;;;;;;;0.82;0.63;;;18.20;55.20;;;;;;5092322;23;20752;-56
2022/05/07 09:46:19;;;;;;;1.03;0.87;;;18.20;55.30;;;;;;5093657;23;20032;-58
2022/05/07 09:48:21;;;;;;;0.80;0.60;;;18.20;55.30;;;;;;5096066;23;20237;-58
2022/05/07 09:50:24;;;;;;;0.85;0.60;;;18.20;55.30;;;;;;5095882;23;20681;-56
2022/05/07 09:52:27;;;;;;;0.75;0.68;;;18.20;55.40;;;;;;5091427;23;20442;-55
2022/05/07 09:59:11;;;;;;;0.90;0.68;;;18.20;55.40;;;;;;5094100;23;20706;-57
2022/05/07 10:01:24;;;;;;;0.65;0.60;;;18.10;55.40;;;;;;5094473;23;20468;-57
2022/05/07 10:03:42;;;;;;;1.40;0.70;;;18.20;55.50;;;;;;5091605;23;20028;-58
2022/05/07 10:06:31;;;;;;;1.33;0.80;;;18.10;55.50;;;;;;5091955;23;20035;-57
2022/05/07 10:08:53;;;;;;;1.55;0.75;;;18.10;55.40;;;;;;5050364;23;20033;-56
2022/05/07 10:10:57;;;;;;;1.58;0.70;;;18.10;55.60;;;;;;5095475;23;20050;-58
2022/05/07 10:13:01;;;;;;;1.45;0.77;;;18.10;55.40;;;;;;5096393;23;20035;-58
2022/05/07 10:15:09;;;;;;;1.08;0.65;;;18.10;55.50;;;;;;5091308;23;20471;-57
2022/05/07 10:17:13;;;;;;;0.80;0.80;;;18.10;55.60;;;;;;5090247;23;20135;-57
2022/05/07 10:19:15;;;;;;;0.82;0.63;;;18.00;55.50;;;;;;5091855;23;20024;-56
2022/05/07 10:21:18;;;;;;;1.23;0.50;;;18.00;55.60;;;;;;5097091;23;20306;-56
2022/05/07 10:23:29;;;;;;;;;;;18.00;55.50;;;;;;5090368;23;20149;-56
2022/05/07 10:25:31;;;;;;;1.02;0.68;;;18.00;55.60;;;;;;5091322;23;20564;-57
2022/05/07 10:27:36;;;;;;;1.50;1.00;;;18.00;55.60;;;;;;5090861;23;20028;-58
2022/05/07 10:29:39;;;;;;;1.23;0.90;;;18.00;55.60;;;;;;5096681;23;20570;-58
2022/05/07 10:31:45;;;;;;;0.75;0.63;;;18.00;55.60;;;;;;5096699;23;20890;-56
2022/05/07 10:33:48;;;;;;;0.73;0.73;;;18.00;55.70;;;;;;5089473;23;20497;-57
2022/05/07 10:35:58;;;;;;;0.80;0.77;;;18.00;55.60;;;;;;5092755;23;20024;-58
2022/05/07 10:38:12;;;;;;;0.70;0.60;;;18.00;55.60;;;;;;5091268;23;20032;-58
2022/05/07 10:40:14;;;;;;;1.23;0.80;;;18.00;55.60;;;;;;5092278;23;20613;-57
2022/05/07 10:42:17;;;;;;;1.90;0.80;;;18.00;56.30;;;;;;5097773;23;20032;-58
2022/05/07 10:44:35;;;;;;;1.40;0.90;;;17.90;55.60;;;;;;5094867;23;20249;-57
2022/05/07 10:46:39;;;;;;;1.85;0.80;;;17.90;55.60;;;;;;5097258;23;20122;-57
2022/05/07 10:49:05;;;;;;;0.85;0.73;;;17.90;55.60;;;;;;5091340;23;20371;-57
2022/05/07 10:51:17;;;;;;;1.52;0.90;;;17.90;55.60;;;;;;5093473;23;20033;-57
2022/05/07 10:53:20;;;;;;;1.05;0.85;;;17.90;55.60;;;;;;5090691;23;20155;-56
2022/05/07 10:55:27;;;;;;;0.93;0.80;;;17.90;55.70;;;;;;5096176;23;20028;-57
2022/05/07 10:57:40;;;;;;;1.02;0.73;;;17.90;55.60;;;;;;5090192;23;20031;-58
2022/05/07 10:59:45;;;;;;;1.60;0.80;;;17.90;55.70;;;;;;5088830;23;20711;-57
2022/05/07 11:01:48;;;;;;;0.70;0.52;;;17.90;55.60;;;;;;5089944;23;20036;-58
2022/05/07 11:04:03;;;;;;;1.47;0.93;;;17.90;55.60;;;;;;5091247;23;20513;-58
2022/05/07 11:06:06;;;;;;;1.40;0.90;;;17.90;55.60;;;;;;5066071;23;20032;-58
2022/05/07 11:08:09;;;;;;;0.98;0.80;;;17.80;55.60;;;;;;5096280;23;20082;-55
2022/05/07 11:10:12;;;;;;;0.75;0.75;;;17.90;55.70;;;;;;5095150;23;21354;-57
2022/05/07 11:12:17;;;;;;;1.02;0.63;;;17.80;55.70;;;;;;5091096;23;20043;-57